La Jolla, California
Current Conditions -  °F | °C
As of 3:55 PM on Sunday 21 Dec 2014 (Local Time) from KNKX Reporting Station
Broken Clouds Broken Clouds  
Wind Chill: 64°   Ceiling: 20000
Heat Index: 64°   Visibility: 10mi
Dew Point: 52°   Wind: 8mph
Humidity: 65%   Direction: 310°NW
Pressure: 30.04"   Gusts: NA
Location:  32.84°N, 117.27°W
Report Text: KNKX 212355Z 31007KT 10SM BKN200 18/11 A3004 RMK AO2 SLP169 T01780111 10200 20172 55008
Loading
Personal Weather Stations






























Interactive Weather Map New forecast layout! Learn more

10-Day Weather Forecast

Advertisements
Track Severe Weather on mobile